Time;durP1;ratioP1;P1;durP2;ratioP2;P2;SDS_P1;SDS_P2;PMS_P1;PMS_P2;Temp;Humidity;BMP_temperature;BMP_pressure;BME280_temperature;BME280_humidity;BME280_pressure;Samples;Min_cycle;Max_cycle;Signal;HPM_P1;HPM_P2
2023/09/29 00:00:52;;;;;;;12.30;2.73;;;18.90;99.90;;;;;;7313671;19;20188;-90
2023/09/29 00:03:19;;;;;;;9.57;2.80;;;18.90;99.90;;;;;;7290310;19;20188;-91
2023/09/29 00:05:45;;;;;;;10.53;3.20;;;19.00;99.90;;;;;;7291935;19;20201;-91
2023/09/29 00:08:16;;;;;;;10.57;2.87;;;19.00;99.90;;;;;;7290943;19;20186;-90
2023/09/29 00:10:45;;;;;;;10.77;2.60;;;19.10;99.90;;;;;;7292392;19;20555;-90
2023/09/29 00:13:12;;;;;;;10.57;2.70;;;19.10;99.90;;;;;;7292480;19;20679;-88
2023/09/29 00:15:38;;;;;;;8.30;2.50;;;19.10;99.90;;;;;;7291986;19;20648;-89
2023/09/29 00:18:05;;;;;;;12.17;2.90;;;19.10;99.90;;;;;;7291046;19;20253;-88
2023/09/29 00:20:31;;;;;;;10.93;2.57;;;19.00;99.90;;;;;;7291904;19;20193;-88
2023/09/29 00:22:59;;;;;;;11.03;2.73;;;18.90;99.90;;;;;;7312678;19;20225;-89
2023/09/29 00:25:25;;;;;;;12.87;2.53;;;18.90;99.90;;;;;;7297539;19;20652;-89
2023/09/29 00:27:52;;;;;;;11.43;2.50;;;18.90;99.90;;;;;;7312542;19;20192;-89
2023/09/29 00:30:19;;;;;;;11.87;2.43;;;18.90;99.90;;;;;;7290498;19;20188;-89
2023/09/29 00:32:48;;;;;;;11.07;2.53;;;18.90;99.90;;;;;;7287835;19;20937;-89
2023/09/29 00:35:33;;;;;;;10.53;2.47;;;18.90;99.90;;;;;;7289477;19;20201;-89
2023/09/29 00:38:00;;;;;;;9.83;2.37;;;19.00;99.90;;;;;;7187679;19;2004428;-89
2023/09/29 00:40:27;;;;;;;15.03;2.67;;;19.10;99.90;;;;;;7291046;19;20220;-89
2023/09/29 00:42:53;;;;;;;10.63;2.40;;;19.20;99.90;;;;;;7311918;19;20212;-89
2023/09/29 00:45:24;;;;;;;9.57;2.20;;;19.40;99.90;;;;;;7290383;19;20183;-89
2023/09/29 00:47:59;;;;;;;12.97;2.20;;;19.40;99.90;;;;;;7290844;19;20182;-89
2023/09/29 00:50:29;;;;;;;12.17;2.80;;;19.40;99.90;;;;;;7303732;19;20188;-88
2023/09/29 00:52:58;;;;;;;8.93;2.30;;;19.60;99.90;;;;;;7294695;19;20197;-89
2023/09/29 00:55:27;;;;;;;9.63;3.00;;;19.60;99.90;;;;;;7304007;19;20193;-88
2023/09/29 00:57:57;;;;;;;12.13;2.43;;;19.70;99.90;;;;;;7311901;19;20535;-90
2023/09/29 01:03:00;;;;;;;13.50;2.50;;;19.70;99.90;;;;;;7271874;19;20644;-90
2023/09/29 01:05:29;;;;;;;13.07;2.80;;;19.80;99.90;;;;;;7290919;19;20211;-88
2023/09/29 01:07:55;;;;;;;12.27;2.67;;;19.70;99.90;;;;;;7311731;19;20186;-90
2023/09/29 01:10:24;;;;;;;8.27;2.17;;;19.60;99.90;;;;;;7312107;19;20230;-89
2023/09/29 01:12:50;;;;;;;9.53;2.20;;;19.70;99.90;;;;;;7289806;19;20724;-90
2023/09/29 01:15:17;;;;;;;11.37;2.50;;;19.80;99.90;;;;;;7289937;19;20191;-89
2023/09/29 01:17:43;;;;;;;10.60;2.50;;;19.70;99.90;;;;;;7289819;19;20186;-89
2023/09/29 01:20:16;;;;;;;9.30;2.50;;;19.80;99.90;;;;;;7289813;19;20205;-89
2023/09/29 01:22:48;;;;;;;8.97;2.40;;;19.80;99.90;;;;;;7288133;19;20192;-90
2023/09/29 01:25:20;;;;;;;10.40;2.50;;;19.90;99.90;;;;;;7291706;19;20227;-90
2023/09/29 01:27:46;;;;;;;11.47;2.33;;;19.90;99.90;;;;;;7290028;19;20213;-90
2023/09/29 01:30:19;;;;;;;10.77;2.47;;;19.80;99.90;;;;;;7293458;19;20189;-89
2023/09/29 01:32:50;;;;;;;9.93;2.10;;;19.80;99.90;;;;;;7294095;19;20203;-90
2023/09/29 01:35:16;;;;;;;9.50;2.13;;;19.80;99.90;;;;;;7293602;19;20581;-90
2023/09/29 01:37:46;;;;;;;14.93;2.70;;;19.90;99.90;;;;;;7293861;19;20258;-89
2023/09/29 01:40:13;;;;;;;10.90;2.23;;;19.90;99.90;;;;;;7315003;19;20203;-89
2023/09/29 01:42:40;;;;;;;11.23;2.70;;;19.90;99.90;;;;;;7288266;19;20205;-89
2023/09/29 01:45:16;;;;;;;13.07;3.00;;;19.90;99.90;;;;;;7288021;19;20197;-89
2023/09/29 01:47:47;;;;;;;9.97;2.70;;;19.90;99.90;;;;;;7288524;19;20187;-89
2023/09/29 01:50:17;;;;;;;11.57;2.80;;;20.10;99.90;;;;;;7309620;19;20195;-90
2023/09/29 01:52:45;;;;;;;10.47;2.67;;;20.20;99.90;;;;;;7287766;19;20213;-90
2023/09/29 01:55:14;;;;;;;8.47;2.00;;;20.20;99.90;;;;;;7288075;19;20199;-89
2023/09/29 01:57:43;;;;;;;9.60;2.50;;;20.20;99.90;;;;;;7288479;19;20189;-89
2023/09/29 02:00:14;;;;;;;9.87;2.43;;;20.30;99.90;;;;;;7286426;19;20193;-90
2023/09/29 02:02:43;;;;;;;7.53;2.23;;;20.30;99.90;;;;;;7289048;19;20200;-90
2023/09/29 02:05:10;;;;;;;11.23;2.63;;;20.30;99.90;;;;;;7309621;19;20203;-90
2023/09/29 02:07:36;;;;;;;10.47;2.33;;;20.40;99.90;;;;;;7287554;19;20183;-90
2023/09/29 02:10:03;;;;;;;9.70;2.50;;;20.40;99.90;;;;;;7288506;19;20193;-89
2023/09/29 02:12:29;;;;;;;8.67;2.20;;;20.40;99.90;;;;;;7289541;19;20196;-90
2023/09/29 02:14:55;;;;;;;10.87;2.50;;;20.50;99.90;;;;;;7293065;19;20192;-89
2023/09/29 02:17:21;;;;;;;9.23;2.60;;;20.50;99.90;;;;;;7309998;19;20199;-89
2023/09/29 02:19:48;;;;;;;7.40;2.40;;;20.60;99.90;;;;;;7287759;19;20187;-90
2023/09/29 02:22:16;;;;;;;10.03;2.50;;;20.70;99.90;;;;;;7287109;19;20203;-89
2023/09/29 02:24:45;;;;;;;7.87;2.23;;;20.60;99.90;;;;;;7288651;19;20208;-90
2023/09/29 02:27:11;;;;;;;6.17;2.00;;;20.50;99.90;;;;;;7287152;19;20192;-91
2023/09/29 02:29:37;;;;;;;8.00;2.27;;;20.50;99.90;;;;;;7287366;19;20221;-90
2023/09/29 02:32:03;;;;;;;8.17;2.37;;;20.50;99.90;;;;;;7308189;19;20187;-90
2023/09/29 02:34:28;;;;;;;6.93;2.20;;;20.50;99.90;;;;;;7286669;19;20533;-90
2023/09/29 02:36:54;;;;;;;7.60;2.57;;;20.30;99.90;;;;;;7303152;19;20176;-90
2023/09/29 02:39:22;;;;;;;7.77;2.10;;;20.40;99.90;;;;;;7307109;19;20187;-89
2023/09/29 02:41:48;;;;;;;8.97;2.60;;;20.40;99.90;;;;;;7287556;19;20193;-90
2023/09/29 02:44:14;;;;;;;6.53;2.37;;;20.40;99.90;;;;;;7286840;19;20228;-89
2023/09/29 02:46:40;;;;;;;7.10;2.10;;;20.50;99.90;;;;;;7286704;19;20184;-89
2023/09/29 02:49:07;;;;;;;6.83;2.20;;;20.50;99.90;;;;;;7286971;19;20199;-90
2023/09/29 02:51:33;;;;;;;6.07;2.23;;;20.50;99.90;;;;;;7308025;19;20197;-90
2023/09/29 02:53:59;;;;;;;8.47;2.20;;;20.60;99.90;;;;;;7285478;19;20193;-90
2023/09/29 02:56:25;;;;;;;6.17;2.20;;;20.60;99.90;;;;;;7293549;19;20194;-89
2023/09/29 02:58:54;;;;;;;7.10;2.20;;;20.50;99.90;;;;;;7329143;19;20183;-90
2023/09/29 03:01:20;;;;;;;5.47;2.30;;;20.50;99.90;;;;;;7288395;19;20187;-90
2023/09/29 03:03:47;;;;;;;7.97;2.40;;;20.50;99.90;;;;;;7286301;19;20189;-90
2023/09/29 03:06:18;;;;;;;6.63;2.27;;;20.50;99.90;;;;;;7287685;19;20195;-89
2023/09/29 03:08:44;;;;;;;7.23;2.27;;;20.40;99.90;;;;;;7284695;19;20962;-90
2023/09/29 03:11:12;;;;;;;6.50;2.40;;;20.50;99.90;;;;;;7330629;19;20195;-88
2023/09/29 03:13:43;;;;;;;6.73;2.30;;;20.50;99.90;;;;;;7285216;19;20186;-90
2023/09/29 03:16:10;;;;;;;6.00;2.40;;;20.60;99.90;;;;;;7311885;19;20238;-90
2023/09/29 03:18:36;;;;;;;7.70;2.10;;;20.60;99.90;;;;;;7290473;19;20196;-89
2023/09/29 03:21:07;;;;;;;6.97;2.43;;;20.60;99.90;;;;;;7310825;19;20221;-90
2023/09/29 03:23:37;;;;;;;4.57;2.03;;;20.70;99.90;;;;;;7289877;19;20219;-89
2023/09/29 03:26:03;;;;;;;5.70;1.93;;;20.80;99.90;;;;;;7290929;19;20194;-89
2023/09/29 03:28:30;;;;;;;5.30;2.30;;;20.70;99.90;;;;;;7288056;19;20203;-89
2023/09/29 03:30:56;;;;;;;4.30;1.87;;;20.70;99.90;;;;;;7284631;19;20188;-89
2023/09/29 03:33:22;;;;;;;6.70;2.10;;;20.80;99.90;;;;;;7306975;19;20200;-90
2023/09/29 03:35:48;;;;;;;7.53;2.03;;;20.80;99.90;;;;;;7286155;19;20292;-90
2023/09/29 03:38:14;;;;;;;10.23;2.50;;;20.80;99.90;;;;;;7307841;19;20192;-89
2023/09/29 03:40:44;;;;;;;6.47;2.23;;;20.70;99.90;;;;;;7284237;19;20198;-89
2023/09/29 03:43:11;;;;;;;9.03;2.47;;;20.80;99.90;;;;;;7284562;19;20199;-90
2023/09/29 03:45:38;;;;;;;6.47;2.40;;;20.70;99.90;;;;;;7286147;19;20208;-90
2023/09/29 03:48:05;;;;;;;6.33;2.20;;;20.80;99.90;;;;;;7286997;19;20294;-89
2023/09/29 03:50:33;;;;;;;8.37;2.60;;;20.80;99.90;;;;;;7285786;19;20178;-90
2023/09/29 03:53:02;;;;;;;6.33;2.17;;;20.80;99.90;;;;;;7285446;19;20192;-90
2023/09/29 03:55:28;;;;;;;7.77;2.40;;;20.90;99.90;;;;;;7284546;19;20225;-89
2023/09/29 03:57:54;;;;;;;7.23;2.20;;;20.90;99.90;;;;;;7307327;19;20252;-90
2023/09/29 04:00:21;;;;;;;7.20;2.27;;;20.90;99.90;;;;;;7286101;19;20186;-90
2023/09/29 04:02:50;;;;;;;7.30;2.20;;;20.90;99.90;;;;;;7284377;19;20196;-91
2023/09/29 04:05:18;;;;;;;7.67;2.37;;;20.90;99.90;;;;;;7285124;19;20697;-90
2023/09/29 04:07:44;;;;;;;6.63;2.10;;;20.80;99.90;;;;;;7286824;19;20190;-90
2023/09/29 04:10:12;;;;;;;6.90;2.23;;;20.70;99.90;;;;;;7292815;19;20255;-90
2023/09/29 04:12:41;;;;;;;4.60;2.27;;;20.80;99.90;;;;;;7292447;19;20204;-90
2023/09/29 04:15:07;;;;;;;6.63;2.30;;;20.80;99.90;;;;;;7291240;19;20200;-89
2023/09/29 04:17:34;;;;;;;6.67;2.33;;;20.70;99.90;;;;;;7293210;19;20200;-90
2023/09/29 04:20:02;;;;;;;8.13;2.50;;;20.70;99.90;;;;;;7291443;19;20200;-90
2023/09/29 04:22:29;;;;;;;8.03;2.17;;;20.80;99.90;;;;;;7288422;19;20195;-89
2023/09/29 04:24:55;;;;;;;6.13;2.10;;;20.80;99.90;;;;;;7310183;19;20299;-89
2023/09/29 04:27:21;;;;;;;7.50;2.23;;;20.80;99.90;;;;;;7310191;19;20235;-90
2023/09/29 04:29:47;;;;;;;7.93;2.30;;;20.80;99.90;;;;;;7292858;19;20588;-89
2023/09/29 04:32:13;;;;;;;9.33;2.47;;;20.80;99.90;;;;;;7292466;19;20590;-90
2023/09/29 04:34:39;;;;;;;7.00;2.60;;;21.00;99.90;;;;;;7291520;19;20537;-90
2023/09/29 04:37:04;;;;;;;7.33;2.40;;;20.90;99.90;;;;;;7290801;19;20707;-90
2023/09/29 04:39:30;;;;;;;5.20;2.20;;;20.90;99.90;;;;;;7291903;19;20189;-91
2023/09/29 04:41:56;;;;;;;6.83;2.17;;;21.00;99.90;;;;;;7294294;19;20234;-91
2023/09/29 04:44:22;;;;;;;6.90;2.27;;;21.00;99.90;;;;;;7313149;19;20713;-92
2023/09/29 04:46:48;;;;;;;7.00;2.20;;;21.10;99.90;;;;;;7291634;19;20188;-92
2023/09/29 04:49:13;;;;;;;11.93;2.60;;;21.20;99.90;;;;;;7291571;19;20192;-92
2023/09/29 04:51:39;;;;;;;6.00;2.30;;;21.20;99.90;;;;;;7293609;19;20255;-91
2023/09/29 04:54:06;;;;;;;6.17;2.30;;;21.20;99.90;;;;;;7292276;19;20195;-91
2023/09/29 04:56:32;;;;;;;6.63;2.40;;;21.30;99.90;;;;;;7295385;19;20216;-91
2023/09/29 04:58:58;;;;;;;8.57;2.40;;;21.30;99.90;;;;;;7308582;19;20608;-90
2023/09/29 05:01:26;;;;;;;5.90;2.50;;;21.30;99.90;;;;;;7325220;19;20195;-91
2023/09/29 05:03:52;;;;;;;4.80;2.30;;;21.40;99.90;;;;;;7305080;19;20709;-90
2023/09/29 05:06:18;;;;;;;6.13;2.50;;;21.40;99.90;;;;;;7300510;19;20213;-92
2023/09/29 05:08:44;;;;;;;4.73;2.10;;;21.40;99.90;;;;;;7296256;19;20188;-91
2023/09/29 05:11:24;;;;;;;6.90;2.57;;;21.40;99.90;;;;;;7297474;19;20258;-92
2023/09/29 05:13:51;;;;;;;8.37;2.33;;;21.30;99.90;;;;;;7299652;19;20192;-93
2023/09/29 05:16:18;;;;;;;6.50;2.23;;;21.20;99.90;;;;;;7300143;19;20196;-92
2023/09/29 05:18:44;;;;;;;8.10;2.40;;;21.10;99.90;;;;;;7290445;19;20192;-92
2023/09/29 05:21:11;;;;;;;7.60;2.60;;;21.10;99.90;;;;;;7290610;19;20186;-92
2023/09/29 05:23:38;;;;;;;7.77;2.30;;;21.20;99.90;;;;;;7290332;19;20202;-91
2023/09/29 05:26:05;;;;;;;8.37;2.60;;;21.10;99.90;;;;;;7289964;19;20198;-91
2023/09/29 05:28:32;;;;;;;9.93;2.50;;;21.10;99.90;;;;;;7290803;19;20231;-92
2023/09/29 05:30:58;;;;;;;7.57;2.53;;;21.00;99.90;;;;;;7291556;19;20262;-92
2023/09/29 05:33:23;;;;;;;7.93;2.53;;;21.00;99.90;;;;;;7308694;19;20212;-91
2023/09/29 05:35:50;;;;;;;5.97;2.57;;;20.90;99.90;;;;;;7290216;19;20650;-92
2023/09/29 05:38:16;;;;;;;8.10;2.60;;;20.90;99.90;;;;;;7290583;19;20504;-93
2023/09/29 05:40:42;;;;;;;6.77;2.40;;;20.90;99.90;;;;;;7289634;19;20266;-90
2023/09/29 05:43:10;;;;;;;7.80;2.40;;;21.00;99.90;;;;;;7290611;19;20560;-91
2023/09/29 05:45:37;;;;;;;6.43;2.40;;;21.00;99.90;;;;;;7290899;19;20220;-92
2023/09/29 05:48:03;;;;;;;5.90;2.40;;;21.00;99.90;;;;;;7291283;19;20264;-92
2023/09/29 05:50:29;;;;;;;9.93;2.77;;;21.10;99.90;;;;;;7288553;19;20219;-91
2023/09/29 05:52:56;;;;;;;8.33;2.90;;;21.20;99.90;;;;;;7310827;19;20203;-91
2023/09/29 05:55:23;;;;;;;6.93;2.60;;;21.30;99.90;;;;;;7311542;19;20188;-92
2023/09/29 05:57:50;;;;;;;6.40;2.70;;;21.30;99.90;;;;;;7289956;19;20639;-92
2023/09/29 06:00:16;;;;;;;8.23;2.70;;;21.20;99.90;;;;;;7291532;19;20194;-90
2023/09/29 06:02:43;;;;;;;8.80;2.47;;;21.30;99.90;;;;;;7288559;19;20188;-91
2023/09/29 06:05:15;;;;;;;8.30;2.60;;;21.30;99.90;;;;;;7288258;19;20227;-91
2023/09/29 06:07:40;;;;;;;7.43;2.40;;;21.30;99.90;;;;;;7290171;19;20191;-90
2023/09/29 06:10:07;;;;;;;10.17;2.80;;;21.30;99.90;;;;;;7289535;19;20253;-91
2023/09/29 06:12:33;;;;;;;6.57;2.47;;;21.30;99.90;;;;;;7290052;19;20189;-90
2023/09/29 06:14:59;;;;;;;7.23;2.80;;;21.40;99.90;;;;;;7287127;19;20192;-90
2023/09/29 06:17:25;;;;;;;11.77;3.10;;;21.40;99.90;;;;;;7304365;19;20559;-90
2023/09/29 06:19:51;;;;;;;7.63;2.70;;;21.30;99.90;;;;;;7307199;19;20279;-90
2023/09/29 06:22:18;;;;;;;8.17;2.70;;;21.30;99.90;;;;;;7289624;19;20200;-90
2023/09/29 06:24:44;;;;;;;7.57;2.30;;;21.30;99.90;;;;;;7289720;19;20199;-90
2023/09/29 06:27:11;;;;;;;7.60;2.90;;;21.30;99.90;;;;;;7299395;19;20185;-90
2023/09/29 06:29:39;;;;;;;7.73;2.80;;;21.40;99.90;;;;;;7311974;19;20184;-91
2023/09/29 06:32:06;;;;;;;10.60;2.90;;;21.40;99.90;;;;;;7310290;19;20196;-90
2023/09/29 06:34:32;;;;;;;8.87;2.80;;;21.50;99.90;;;;;;7298083;19;20184;-91
2023/09/29 06:36:58;;;;;;;8.67;2.90;;;21.50;99.90;;;;;;7290573;19;20197;-91
2023/09/29 06:39:24;;;;;;;10.23;2.83;;;21.50;99.90;;;;;;7312562;19;20244;-90
2023/09/29 06:41:50;;;;;;;7.20;2.50;;;21.50;99.90;;;;;;7291284;19;20692;-90
2023/09/29 06:44:17;;;;;;;8.30;2.57;;;21.60;99.90;;;;;;7291839;19;20204;-91
2023/09/29 06:46:43;;;;;;;10.50;2.70;;;21.80;99.90;;;;;;7293374;19;20191;-90
2023/09/29 06:49:09;;;;;;;9.57;2.60;;;22.10;99.90;;;;;;7288796;19;20197;-90
2023/09/29 06:51:36;;;;;;;9.73;2.77;;;22.20;99.90;;;;;;7290333;19;20242;-90
2023/09/29 06:54:02;;;;;;;6.30;2.30;;;22.50;99.90;;;;;;7289581;19;20193;-91
2023/09/29 06:56:29;;;;;;;9.87;2.90;;;22.80;99.90;;;;;;7291076;19;20185;-92
2023/09/29 06:58:54;;;;;;;8.20;2.57;;;23.00;99.90;;;;;;7315429;19;20276;-93
2023/09/29 07:01:24;;;;;;;7.63;2.40;;;23.00;99.90;;;;;;7290575;19;20196;-91
2023/09/29 07:03:50;;;;;;;6.20;2.53;;;23.10;99.90;;;;;;7287200;19;20189;-93
2023/09/29 07:06:23;;;;;;;7.20;2.30;;;23.10;99.90;;;;;;7280285;19;20659;-92
2023/09/29 07:08:49;;;;;;;7.17;2.63;;;23.10;99.90;;;;;;7286009;19;20699;-91
2023/09/29 07:11:15;;;;;;;9.60;2.80;;;23.30;99.90;;;;;;7286853;19;20193;-92
2023/09/29 07:13:41;;;;;;;8.73;2.70;;;23.40;99.90;;;;;;7286535;19;20196;-90
2023/09/29 07:16:07;;;;;;;9.33;2.77;;;23.30;99.90;;;;;;7285643;19;20189;-91
2023/09/29 07:18:33;;;;;;;7.93;2.90;;;23.20;99.90;;;;;;7285565;19;20194;-90
2023/09/29 07:21:00;;;;;;;8.68;2.78;;;23.00;99.90;;;;;;7285837;19;20205;-92
2023/09/29 07:23:28;;;;;;;10.57;2.90;;;23.10;99.90;;;;;;7299825;19;20648;-91
2023/09/29 07:25:54;;;;;;;7.82;2.63;;;23.10;99.90;;;;;;7307244;19;20214;-91
2023/09/29 07:28:23;;;;;;;9.25;2.83;;;23.40;99.90;;;;;;7286006;19;20210;-91
2023/09/29 07:30:50;;;;;;;8.60;3.17;;;23.50;99.90;;;;;;7285930;19;20188;-90
2023/09/29 07:33:16;;;;;;;7.70;2.65;;;23.80;99.90;;;;;;7286034;19;20190;-90
2023/09/29 07:35:44;;;;;;;9.88;2.92;;;23.90;99.90;;;;;;7285053;19;20180;-92
2023/09/29 07:38:10;;;;;;;14.27;2.75;;;24.20;99.90;;;;;;7286895;19;20185;-91
2023/09/29 07:40:37;;;;;;;8.88;2.67;;;24.10;99.90;;;;;;7286221;19;20184;-91
2023/09/29 07:43:04;;;;;;;8.33;2.70;;;23.80;99.90;;;;;;7288408;19;20183;-91
2023/09/29 07:45:31;;;;;;;12.90;3.13;;;23.50;99.90;;;;;;7291271;19;20184;-92
2023/09/29 07:47:58;;;;;;;7.97;2.77;;;23.30;99.90;;;;;;7296625;19;20244;-91
2023/09/29 07:50:23;;;;;;;9.17;3.30;;;23.30;99.90;;;;;;7314734;19;20189;-93
2023/09/29 07:52:49;;;;;;;8.97;3.00;;;23.40;99.90;;;;;;7292565;19;20190;-92
2023/09/29 07:55:15;;;;;;;10.03;3.17;;;23.80;99.90;;;;;;7292019;19;20276;-92
2023/09/29 07:57:41;;;;;;;12.87;3.30;;;24.10;99.90;;;;;;7292565;19;20185;-91
2023/09/29 08:00:11;;;;;;;10.20;2.92;;;24.40;99.90;;;;;;7292975;19;20195;-92
2023/09/29 08:02:37;;;;;;;11.00;3.20;;;24.90;99.90;;;;;;7292038;19;20555;-92
2023/09/29 08:05:04;;;;;;;12.15;3.08;;;25.40;99.90;;;;;;7291695;19;20189;-91
2023/09/29 08:07:30;;;;;;;11.88;3.40;;;25.10;99.90;;;;;;7293480;19;20203;-92
2023/09/29 08:09:56;;;;;;;12.15;3.40;;;25.70;99.90;;;;;;7306616;19;20193;-92
2023/09/29 08:12:22;;;;;;;12.85;3.30;;;27.30;99.90;;;;;;7309599;19;20181;-92
2023/09/29 08:14:48;;;;;;;11.18;2.95;;;28.50;99.90;;;;;;7290354;19;20193;-91
2023/09/29 08:17:14;;;;;;;10.52;3.38;;;29.00;99.90;;;;;;7290930;19;20627;-92
2023/09/29 08:19:39;;;;;;;10.07;3.30;;;28.40;99.90;;;;;;7291219;19;20542;-93
2023/09/29 08:22:06;;;;;;;10.73;3.28;;;28.00;99.90;;;;;;7290882;19;20192;-92
2023/09/29 08:24:32;;;;;;;12.00;3.40;;;27.50;99.90;;;;;;7292546;19;20188;-92
2023/09/29 08:27:00;;;;;;;15.18;3.83;;;26.50;99.90;;;;;;7291864;19;20248;-91
2023/09/29 08:29:26;;;;;;;11.48;3.58;;;26.20;99.90;;;;;;7305777;19;20278;-91
2023/09/29 08:31:54;;;;;;;14.70;3.50;;;25.90;99.90;;;;;;7313975;19;20185;-92
2023/09/29 08:34:20;;;;;;;13.85;3.83;;;25.80;99.90;;;;;;7290110;19;20187;-92
2023/09/29 08:36:45;;;;;;;10.80;3.20;;;25.70;99.90;;;;;;7288844;19;20201;-92
2023/09/29 08:39:11;;;;;;;12.30;3.70;;;25.50;99.90;;;;;;7292081;19;20648;-91
2023/09/29 08:41:45;;;;;;;11.10;3.80;;;25.00;99.90;;;;;;7291247;19;20659;-93
2023/09/29 08:44:16;;;;;;;11.07;3.38;;;24.60;99.90;;;;;;7290589;19;20204;-92
2023/09/29 08:46:45;;;;;;;11.93;3.35;;;24.30;99.90;;;;;;7290596;19;20199;-92
2023/09/29 08:49:12;;;;;;;14.77;4.03;;;24.00;99.90;;;;;;7286954;19;20196;-90
2023/09/29 08:51:38;;;;;;;12.47;3.60;;;23.80;99.90;;;;;;7290151;19;20248;-93
2023/09/29 08:54:06;;;;;;;14.15;3.75;;;23.90;99.90;;;;;;7287476;19;20180;-91
2023/09/29 08:56:34;;;;;;;14.93;3.70;;;23.90;99.90;;;;;;7293002;19;20192;-91
2023/09/29 08:59:01;;;;;;;12.07;3.72;;;24.10;99.90;;;;;;7288880;19;20198;-91
2023/09/29 09:01:30;;;;;;;14.70;3.97;;;24.20;99.90;;;;;;7292235;19;20189;-91
2023/09/29 09:03:55;;;;;;;13.70;3.80;;;24.00;99.90;;;;;;7312709;19;20188;-92
2023/09/29 09:06:24;;;;;;;12.47;3.90;;;24.00;99.90;;;;;;7298797;19;20189;-92
2023/09/29 09:08:54;;;;;;;8.93;3.07;;;23.90;99.90;;;;;;7291426;19;20200;-91
2023/09/29 09:11:21;;;;;;;14.43;3.77;;;24.00;99.90;;;;;;7291733;19;20199;-90
2023/09/29 09:14:04;;;;;;;10.87;2.93;;;23.80;99.90;;;;;;7287105;19;20174;-91
2023/09/29 09:16:36;;;;;;;12.77;3.85;;;23.70;99.90;;;;;;7268161;19;20185;-91
2023/09/29 09:19:09;;;;;;;11.93;3.60;;;23.80;99.90;;;;;;7289618;19;20192;-91
2023/09/29 09:21:35;;;;;;;12.13;3.30;;;24.00;99.90;;;;;;7290600;19;20193;-91
2023/09/29 09:24:00;;;;;;;12.93;3.50;;;24.00;99.90;;;;;;7289225;19;20190;-91
2023/09/29 09:26:29;;;;;;;12.23;3.33;;;23.90;99.90;;;;;;7301051;19;20268;-91
2023/09/29 09:28:58;;;;;;;13.30;3.80;;;23.70;99.90;;;;;;7311385;19;20189;-91
2023/09/29 09:31:24;;;;;;;13.73;3.73;;;23.40;99.90;;;;;;7288760;19;20302;-90
2023/09/29 09:33:53;;;;;;;12.33;3.73;;;22.80;99.90;;;;;;7291571;19;20655;-91
2023/09/29 09:36:24;;;;;;;16.80;4.13;;;22.30;99.90;;;;;;7290861;19;20192;-90
2023/09/29 09:38:53;;;;;;;12.23;3.63;;;22.10;99.90;;;;;;7282226;19;20535;-90
2023/09/29 09:41:19;;;;;;;12.73;3.40;;;21.90;99.90;;;;;;7288490;19;20181;-91
2023/09/29 09:43:45;;;;;;;15.47;3.90;;;21.90;99.90;;;;;;7291621;19;20196;-91
2023/09/29 09:46:17;;;;;;;12.30;3.67;;;21.90;99.90;;;;;;7286122;19;20215;-90
2023/09/29 09:48:55;;;;;;;14.70;4.07;;;22.10;99.90;;;;;;7288863;19;20213;-90
2023/09/29 09:51:34;;;;;;;13.43;3.67;;;22.50;99.90;;;;;;7289925;19;20199;-91
2023/09/29 09:54:08;;;;;;;12.70;3.30;;;22.50;99.90;;;;;;7268060;19;20180;-90
2023/09/29 09:57:08;;;;;;;12.13;3.57;;;22.80;99.90;;;;;;7286863;19;20296;-90
2023/09/29 09:59:41;;;;;;;11.43;3.37;;;23.10;99.90;;;;;;7184941;19;2004553;-90
2023/09/29 10:02:12;;;;;;;10.23;3.50;;;23.20;99.90;;;;;;7290892;19;20583;-93
2023/09/29 10:04:43;;;;;;;9.40;3.07;;;23.50;99.90;;;;;;7291147;19;20189;-90
2023/09/29 10:07:10;;;;;;;12.80;3.40;;;23.80;99.90;;;;;;7285115;19;20185;-91
2023/09/29 10:09:46;;;;;;;9.87;3.40;;;23.80;99.90;;;;;;7290466;19;20215;-90
2023/09/29 10:12:31;;;;;;;11.07;3.30;;;23.70;99.90;;;;;;7292406;19;20184;-91
2023/09/29 10:14:58;;;;;;;10.87;3.33;;;23.50;99.90;;;;;;7280184;19;20184;-91
2023/09/29 10:17:38;;;;;;;11.90;3.30;;;23.40;99.90;;;;;;7309188;19;20197;-90
2023/09/29 10:20:04;;;;;;;10.93;3.47;;;23.20;99.90;;;;;;7186761;19;2004584;-92
2023/09/29 10:22:31;;;;;;;12.60;3.70;;;23.30;99.90;;;;;;7287731;19;20284;-92
2023/09/29 10:24:57;;;;;;;11.73;3.40;;;23.30;99.90;;;;;;7298451;19;20188;-90
2023/09/29 10:27:31;;;;;;;13.70;3.40;;;23.30;99.90;;;;;;7306990;19;20184;-91
2023/09/29 10:30:19;;;;;;;12.80;3.27;;;23.20;99.90;;;;;;7278068;19;20195;-89
2023/09/29 10:32:48;;;;;;;13.23;4.20;;;22.90;99.90;;;;;;7287689;19;20193;-90
2023/09/29 10:35:22;;;;;;;14.73;3.23;;;22.90;99.90;;;;;;7286361;19;20197;-91
2023/09/29 10:37:54;;;;;;;15.13;3.53;;;22.80;99.90;;;;;;7284581;19;20209;-90
2023/09/29 10:40:31;;;;;;;12.03;3.70;;;22.80;99.90;;;;;;7285595;19;20203;-91
2023/09/29 10:43:01;;;;;;;13.10;3.87;;;23.00;99.90;;;;;;7275301;19;20651;-91
2023/09/29 10:45:37;;;;;;;18.80;3.80;;;23.00;99.90;;;;;;7297901;19;20216;-90
2023/09/29 10:48:08;;;;;;;15.83;3.97;;;23.00;99.90;;;;;;7287808;19;20237;-90
2023/09/29 10:50:41;;;;;;;15.73;3.70;;;23.00;99.90;;;;;;7284963;19;20204;-90
2023/09/29 10:53:08;;;;;;;17.17;4.10;;;23.00;99.90;;;;;;7286907;19;20217;-91
2023/09/29 10:55:41;;;;;;;15.37;3.87;;;22.90;99.90;;;;;;7307882;19;20177;-90
2023/09/29 10:58:06;;;;;;;16.63;3.90;;;22.90;99.90;;;;;;7286482;19;20239;-90
2023/09/29 11:00:40;;;;;;;14.47;4.00;;;22.90;99.90;;;;;;7303989;19;20193;-90
2023/09/29 11:03:13;;;;;;;16.03;3.90;;;22.90;99.90;;;;;;7286251;19;20192;-90
2023/09/29 11:05:49;;;;;;;14.57;3.90;;;22.90;99.90;;;;;;7287418;19;20200;-90
2023/09/29 11:08:25;;;;;;;14.87;4.23;;;23.20;99.90;;;;;;7285713;19;20209;-91
2023/09/29 11:10:58;;;;;;;16.40;4.20;;;23.40;99.90;;;;;;7282470;19;20193;-91
2023/09/29 11:13:26;;;;;;;12.90;3.80;;;23.60;99.90;;;;;;7286697;19;20660;-91
2023/09/29 11:15:52;;;;;;;14.13;4.17;;;23.70;99.90;;;;;;7286331;19;20196;-91
2023/09/29 11:18:29;;;;;;;15.87;4.00;;;23.60;99.90;;;;;;7284818;19;20182;-90
2023/09/29 11:20:58;;;;;;;18.33;4.10;;;23.60;99.90;;;;;;7282048;19;20193;-90
2023/09/29 11:23:24;;;;;;;13.20;3.50;;;23.70;99.90;;;;;;7285913;19;20206;-90
2023/09/29 11:25:54;;;;;;;18.93;4.00;;;23.80;99.90;;;;;;7287393;19;21107;-91
2023/09/29 11:28:24;;;;;;;13.77;3.97;;;24.10;99.90;;;;;;7286484;19;20192;-90
2023/09/29 11:30:52;;;;;;;15.73;3.90;;;24.10;99.90;;;;;;7282914;19;20200;-89
2023/09/29 11:33:19;;;;;;;13.67;3.40;;;23.80;99.90;;;;;;7288254;19;20547;-89
2023/09/29 11:35:51;;;;;;;14.20;3.83;;;23.60;99.90;;;;;;7290767;19;20767;-90
2023/09/29 11:38:27;;;;;;;13.40;4.10;;;23.50;99.90;;;;;;7333605;19;20224;-90
2023/09/29 11:40:55;;;;;;;13.03;3.93;;;23.40;99.90;;;;;;7281509;19;20201;-90
2023/09/29 11:43:21;;;;;;;13.70;3.70;;;23.10;99.90;;;;;;7284840;19;20652;-90
2023/09/29 11:45:47;;;;;;;14.23;3.77;;;22.90;99.90;;;;;;7286371;19;20214;-90
2023/09/29 11:48:12;;;;;;;13.67;3.57;;;22.50;99.90;;;;;;7286078;19;20524;-89
2023/09/29 11:50:38;;;;;;;12.60;2.73;;;22.20;99.90;;;;;;7278862;19;20192;-90
2023/09/29 11:53:06;;;;;;;8.23;2.47;;;21.80;99.90;;;;;;7286036;19;20248;-90
2023/09/29 11:55:36;;;;;;;7.10;2.37;;;21.50;99.90;;;;;;7288804;19;20681;-86
2023/09/29 11:58:02;;;;;;;8.60;2.13;;;21.30;99.90;;;;;;7289899;19;20562;-88
2023/09/29 12:00:29;;;;;;;7.43;2.20;;;21.30;99.90;;;;;;7294116;19;20184;-89
2023/09/29 12:02:55;;;;;;;5.63;2.33;;;21.30;99.90;;;;;;7311784;19;20614;-89
2023/09/29 12:05:21;;;;;;;6.83;2.00;;;21.40;99.90;;;;;;7289982;19;20221;-88
2023/09/29 12:07:47;;;;;;;6.60;2.50;;;21.50;99.90;;;;;;7290258;19;20194;-90
2023/09/29 12:10:14;;;;;;;7.40;2.13;;;21.50;99.90;;;;;;7289308;19;20224;-88
2023/09/29 12:12:42;;;;;;;5.83;1.87;;;21.50;99.90;;;;;;7285073;19;20206;-90
2023/09/29 12:15:08;;;;;;;5.17;1.60;;;21.30;99.90;;;;;;7284481;19;20222;-88
2023/09/29 12:17:35;;;;;;;5.90;1.80;;;21.20;99.90;;;;;;7284851;19;20295;-89
2023/09/29 12:20:02;;;;;;;8.27;2.00;;;21.20;99.90;;;;;;7284214;19;20186;-90
2023/09/29 12:22:31;;;;;;;6.37;2.03;;;21.20;99.90;;;;;;7294177;19;20200;-88
2023/09/29 12:24:56;;;;;;;5.07;1.70;;;21.20;99.90;;;;;;7306422;19;20183;-89
2023/09/29 12:27:23;;;;;;;8.83;1.60;;;21.00;99.90;;;;;;7285996;19;20199;-89
2023/09/29 12:29:49;;;;;;;8.63;1.80;;;20.90;99.90;;;;;;7286252;19;20192;-88
2023/09/29 12:32:15;;;;;;;6.70;1.40;;;20.90;99.90;;;;;;7290354;19;20204;-89
2023/09/29 12:34:41;;;;;;;6.60;1.30;;;20.80;99.90;;;;;;7291305;19;20191;-87
2023/09/29 12:37:08;;;;;;;7.27;1.30;;;21.00;99.90;;;;;;7290543;19;20216;-90
2023/09/29 12:39:34;;;;;;;6.67;1.10;;;21.10;99.90;;;;;;7291274;19;20201;-90
2023/09/29 12:41:59;;;;;;;7.20;1.43;;;21.20;99.90;;;;;;7291965;19;20191;-90
2023/09/29 12:44:25;;;;;;;6.87;1.57;;;21.10;99.90;;;;;;7315855;19;20194;-90
2023/09/29 12:46:51;;;;;;;10.97;1.70;;;21.00;99.90;;;;;;7294116;19;20217;-90
2023/09/29 12:49:17;;;;;;;7.63;1.80;;;21.00;99.90;;;;;;7295453;19;20355;-90